Time;durP1;ratioP1;P1;durP2;ratioP2;P2;SDS_P1;SDS_P2;PMS_P1;PMS_P2;Temp;Humidity;BMP_temperature;BMP_pressure;BME280_temperature;BME280_humidity;BME280_pressure;Samples;Min_cycle;Max_cycle;Signal;HPM_P1;HPM_P2
2021/05/26 00:01:45;;;;;;;2.30;2.10;;;;;;;14.80;88.19;97900.42;1704574;83;21008;-73
2021/05/26 00:04:12;;;;;;;3.37;2.52;;;;;;;14.74;86.80;97896.69;1704339;84;21052;-73
2021/05/26 00:06:40;;;;;;;2.92;2.30;;;;;;;14.68;87.48;97905.84;1704259;83;21083;-73
2021/05/26 00:09:07;;;;;;;2.20;2.00;;;;;;;14.64;87.97;97921.13;1704392;84;21549;-73
2021/05/26 00:11:34;;;;;;;2.58;1.77;;;;;;;14.56;88.23;97926.41;1704359;84;21239;-73
2021/05/26 00:14:00;;;;;;;3.45;1.80;;;;;;;14.45;88.63;97923.78;1704409;84;21051;-73
2021/05/26 00:16:27;;;;;;;1.72;1.62;;;;;;;14.44;87.15;97926.52;1704355;84;21540;-73
2021/05/26 00:18:54;;;;;;;1.70;1.60;;;;;;;14.43;87.66;97919.45;1713419;83;21043;-73
2021/05/26 00:21:22;;;;;;;2.10;1.90;;;;;;;14.42;87.25;97921.73;1717291;83;21047;-73
2021/05/26 00:23:49;;;;;;;2.33;2.10;;;;;;;14.42;87.21;97919.94;1704543;84;21048;-73
2021/05/26 00:26:15;;;;;;;1.40;1.30;;;;;;;14.43;87.54;97905.67;1704428;84;21092;-73
2021/05/26 00:28:43;;;;;;;2.22;1.52;;;;;;;14.45;87.94;97917.11;1704368;84;21064;-73
2021/05/26 00:31:11;;;;;;;2.12;1.37;;;;;;;14.46;88.02;97917.99;1704517;84;21065;-73
2021/05/26 00:33:37;;;;;;;2.33;1.20;;;;;;;14.47;87.18;97915.72;1704477;84;21072;-73
2021/05/26 00:36:05;;;;;;;1.65;1.02;;;;;;;14.47;85.59;97915.72;1704365;84;21524;-73
2021/05/26 00:38:32;;;;;;;3.37;1.30;;;;;;;14.47;85.20;97906.38;1704435;84;21075;-73
2021/05/26 00:40:58;;;;;;;2.08;1.20;;;;;;;14.45;84.84;97896.27;1704419;84;21047;-73
2021/05/26 00:43:25;;;;;;;2.15;1.40;;;;;;;14.39;83.92;97887.63;1708661;83;21032;-73
2021/05/26 00:45:52;;;;;;;1.65;1.35;;;;;;;14.39;83.88;97874.75;1716304;83;21087;-73
2021/05/26 00:48:18;;;;;;;2.17;1.30;;;;;;;14.39;83.60;97880.96;1703023;84;21614;-73
2021/05/26 00:50:47;;;;;;;1.98;1.35;;;;;;;14.36;84.09;97893.09;1703980;84;21505;-73
2021/05/26 00:53:15;;;;;;;1.35;1.22;;;;;;;14.34;81.95;97902.97;1704036;84;21047;-73
2021/05/26 00:55:43;;;;;;;1.10;1.00;;;;;;;14.31;78.50;97894.23;1704125;84;21019;-73
2021/05/26 00:58:12;;;;;;;2.05;1.10;;;;;;;14.34;77.42;97884.31;1700721;84;21051;-73
2021/05/26 01:00:41;;;;;;;2.10;1.10;;;;;;;14.36;77.52;97889.55;1636139;85;21554;-73
2021/05/26 01:03:11;;;;;;;1.65;1.17;;;;;;;14.39;77.21;97886.75;1678573;85;21112;-73
2021/05/26 01:05:40;;;;;;;1.72;0.98;;;;;;;14.43;76.19;97885.67;1682588;84;21043;-73
2021/05/26 01:08:07;;;;;;;2.27;1.30;;;;;;;14.47;76.14;97892.59;1686513;84;21075;-73
2021/05/26 01:10:35;;;;;;;2.92;1.10;;;;;;;14.48;75.85;97889.44;1691504;84;21072;-73
2021/05/26 01:13:11;;;;;;;1.70;1.25;;;;;;;14.47;76.42;97883.72;1679572;85;21018;-73
2021/05/26 01:15:39;;;;;;;1.25;1.07;;;;;;;14.48;77.16;97886.77;1679547;85;21094;-73
2021/05/26 01:18:28;;;;;;;3.30;1.40;;;;;;;14.46;77.83;97896.20;1679468;85;21049;-73
2021/05/26 01:21:01;;;;;;;1.30;1.20;;;;;;;14.42;79.99;97888.41;1679453;85;21061;-73
2021/05/26 01:23:28;;;;;;;2.25;1.22;;;;;;;14.39;79.12;97897.41;1679442;85;21010;-73
2021/05/26 01:25:59;;;;;;;1.32;1.05;;;;;;;14.38;78.95;97916.53;1678383;85;21557;-73
2021/05/26 01:28:28;;;;;;;1.75;1.40;;;;;;;14.38;78.72;97919.69;1657799;85;21037;-73
2021/05/26 01:30:57;;;;;;;3.35;1.10;;;;;;;14.35;79.81;97939.35;1686521;83;21035;-73
2021/05/26 01:33:28;;;;;;;2.75;1.20;;;;;;;14.36;78.62;97937.53;1690277;84;21132;-74
2021/05/26 01:35:56;;;;;;;2.17;1.20;;;;;;;14.32;78.98;97944.81;1704903;84;21035;-73
2021/05/26 01:38:25;;;;;;;1.47;1.37;;;;;;;14.28;78.82;97959.70;1707808;84;21051;-74
2021/05/26 01:41:01;;;;;;;2.22;1.70;;;;;;;14.28;79.31;97973.03;1707978;83;21130;-73
2021/05/26 01:43:30;;;;;;;4.70;1.70;;;;;;;14.22;79.94;97962.16;1707950;84;21031;-73
2021/05/26 01:45:57;;;;;;;3.52;2.72;;;;;;;14.19;80.90;97971.16;1707825;84;21047;-74
2021/05/26 01:48:23;;;;;;;1.90;1.70;;;;;;;14.18;81.60;97967.23;1707845;84;21146;-73
2021/05/26 01:50:50;;;;;;;1.98;1.42;;;;;;;14.18;82.07;97971.23;1707863;84;21054;-73
2021/05/26 01:53:18;;;;;;;2.42;1.50;;;;;;;14.16;81.94;97971.78;1707811;84;21050;-73
2021/05/26 01:55:45;;;;;;;2.72;1.82;;;;;;;14.15;81.68;97969.56;1704959;84;21049;-74
2021/05/26 01:58:15;;;;;;;2.40;1.70;;;;;;;14.13;81.89;97979.44;1700697;83;21055;-73
2021/05/26 02:00:44;;;;;;;3.02;1.75;;;;;;;14.11;83.11;97986.16;1691841;83;21054;-73
2021/05/26 02:03:13;;;;;;;2.15;1.70;;;;;;;14.10;82.67;97995.10;1686889;85;21102;-73
2021/05/26 02:05:40;;;;;;;2.17;1.40;;;;;;;14.07;84.30;97987.23;1686806;85;21145;-73
2021/05/26 02:08:08;;;;;;;2.60;1.42;;;;;;;14.02;83.84;98003.02;1686914;85;21042;-73
2021/05/26 02:13:20;;;;;;;3.02;1.80;;;;;;;13.98;84.39;98024.48;1686933;84;21455;-73
2021/05/26 02:15:54;;;;;;;6.15;2.17;;;;;;;14.00;84.55;98025.75;1687201;84;21102;-73
2021/05/26 02:18:22;;;;;;;3.45;1.60;;;;;;;14.01;84.48;98034.14;1686962;84;21055;-74
2021/05/26 02:20:48;;;;;;;13.05;2.35;;;;;;;13.96;85.86;98046.80;1690670;84;21019;-73
2021/05/26 02:23:15;;;;;;;2.33;1.90;;;;;;;13.90;85.41;98037.25;1698409;84;21066;-73
2021/05/26 02:25:44;;;;;;;2.17;1.85;;;;;;;13.88;86.11;98036.47;1702879;84;21003;-74
2021/05/26 02:28:11;;;;;;;2.58;1.80;;;;;;;13.89;85.52;98043.52;1686980;85;21551;-73
2021/05/26 02:30:37;;;;;;;2.45;2.00;;;;;;;13.82;84.89;98042.03;1687150;85;21002;-74
2021/05/26 02:33:04;;;;;;;4.80;2.10;;;;;;;13.71;83.67;98048.67;1687030;85;21082;-74
2021/05/26 02:35:32;;;;;;;2.45;1.92;;;;;;;13.57;83.48;98063.90;1686941;85;21503;-73
2021/05/26 02:37:58;;;;;;;3.70;1.70;;;;;;;13.49;83.78;98066.48;1687058;84;21039;-73
2021/05/26 02:40:26;;;;;;;4.35;1.80;;;;;;;13.41;82.61;98064.09;1687018;85;21043;-73
2021/05/26 02:42:54;;;;;;;3.60;1.70;;;;;;;13.28;82.29;98079.20;1687002;85;21070;-73
2021/05/26 02:45:20;;;;;;;2.02;1.67;;;;;;;13.22;82.46;98081.23;1687263;84;21035;-73
2021/05/26 02:47:47;;;;;;;2.45;1.65;;;;;;;13.12;82.43;98079.41;1694791;84;21571;-73
2021/05/26 02:50:17;;;;;;;3.22;1.50;;;;;;;12.98;80.88;98079.47;1709673;84;21062;-73
2021/05/26 02:52:46;;;;;;;2.08;1.22;;;;;;;12.83;80.29;98091.55;1715627;83;21055;-73
2021/05/26 02:55:17;;;;;;;2.12;1.47;;;;;;;12.67;80.41;98093.92;1715523;84;21097;-73
2021/05/26 02:57:46;;;;;;;3.08;1.07;;;;;;;12.60;80.41;98097.72;1711151;84;21102;-73
2021/05/26 03:00:21;;;;;;;2.55;1.40;;;;;;;12.51;80.59;98105.57;1644799;85;21086;-73
2021/05/26 03:02:51;;;;;;;3.75;1.32;;;;;;;12.41;80.24;98105.02;1689350;84;21090;-73
2021/05/26 03:05:20;;;;;;;1.87;1.30;;;;;;;12.33;79.85;98106.61;1667676;85;21046;-73
2021/05/26 03:07:47;;;;;;;1.87;1.30;;;;;;;12.18;80.14;98121.31;1687034;85;21058;-73
2021/05/26 03:10:17;;;;;;;2.40;1.30;;;;;;;12.07;79.00;98135.40;1686939;85;21030;-73
2021/05/26 03:12:44;;;;;;;3.22;1.30;;;;;;;12.05;80.07;98142.12;1673118;85;21034;-73
2021/05/26 03:15:15;;;;;;;1.52;1.05;;;;;;;12.04;80.80;98146.12;1673392;85;21070;-73
2021/05/26 03:17:44;;;;;;;3.65;1.32;;;;;;;12.02;80.49;98151.47;1659261;86;21066;-72
2021/05/26 03:20:15;;;;;;;6.15;2.45;;;;;;;12.03;81.37;98165.16;1659404;86;21102;-73
2021/05/26 03:22:59;;;;;;;4.75;2.55;;;;;;;12.01;80.49;98159.04;1657060;86;21062;-73
2021/05/26 03:25:37;;;;;;;2.50;1.27;;;;;;;12.01;82.20;98155.91;1655084;86;21516;-73
2021/05/26 03:28:06;;;;;;;9.83;2.65;;;;;;;12.03;79.64;98161.65;1658756;86;21070;-73
2021/05/26 03:30:34;;;;;;;4.62;1.22;;;;;;;12.05;79.91;98153.19;1659171;86;21063;-73
2021/05/26 03:33:06;;;;;;;1.20;1.10;;;;;;;12.08;79.48;98151.77;1659267;86;21085;-72
2021/05/26 03:35:33;;;;;;;3.83;1.07;;;;;;;12.11;79.36;98154.30;1661008;85;21102;-73
2021/05/26 03:38:00;;;;;;;2.55;1.20;;;;;;;12.15;79.70;98155.95;1672693;85;21508;-72
2021/05/26 03:40:28;;;;;;;1.75;1.25;;;;;;;12.20;79.47;98148.69;1675718;85;21114;-73
2021/05/26 03:42:57;;;;;;;3.08;1.30;;;;;;;12.26;79.32;98148.47;1659292;85;21027;-73
2021/05/26 03:45:34;;;;;;;3.40;1.20;;;;;;;12.29;78.94;98144.84;1646963;86;21074;-73
2021/05/26 03:48:02;;;;;;;2.67;1.20;;;;;;;12.38;79.70;98135.70;1659318;85;21022;-73
2021/05/26 03:50:29;;;;;;;1.90;1.40;;;;;;;12.44;79.43;98139.92;1659282;86;21561;-73
2021/05/26 03:52:57;;;;;;;1.70;1.20;;;;;;;12.48;79.30;98143.77;1659213;86;21046;-73
2021/05/26 03:55:26;;;;;;;4.62;1.30;;;;;;;12.52;79.49;98137.87;1631095;86;21146;-73
2021/05/26 03:57:54;;;;;;;3.60;1.52;;;;;;;12.63;79.76;98146.80;1658812;86;21070;-73
2021/05/26 04:00:23;;;;;;;3.12;1.60;;;;;;;12.70;79.61;98151.45;1642791;85;21102;-73
2021/05/26 04:02:52;;;;;;;2.90;1.72;;;;;;;12.71;79.99;98155.35;1672425;85;21055;-73
2021/05/26 04:05:19;;;;;;;3.45;1.82;;;;;;;12.74;79.55;98161.05;1674239;85;21464;-74
2021/05/26 04:07:46;;;;;;;3.37;1.80;;;;;;;12.73;78.83;98157.97;1672351;86;21098;-75
2021/05/26 04:10:13;;;;;;;2.35;1.32;;;;;;;12.71;79.07;98163.81;1672434;85;21050;-75
2021/05/26 04:12:42;;;;;;;3.77;1.50;;;;;;;12.78;79.03;98161.33;1672196;85;21095;-74
2021/05/26 04:15:13;;;;;;;5.65;1.72;;;;;;;12.84;78.80;98168.23;1670294;86;21114;-74
2021/05/26 04:18:05;;;;;;;2.22;1.60;;;;;;;12.86;76.03;98175.67;1669101;86;21607;-75
2021/05/26 04:20:33;;;;;;;2.42;1.25;;;;;;;12.85;76.90;98173.50;1672139;84;21524;-74
2021/05/26 04:23:02;;;;;;;3.08;1.27;;;;;;;12.84;76.22;98173.55;1674459;85;21065;-75
2021/05/26 04:25:29;;;;;;;2.47;1.70;;;;;;;12.77;74.02;98164.91;1673625;85;21118;-75
2021/05/26 04:27:57;;;;;;;1.80;1.30;;;;;;;12.68;73.99;98166.13;1644059;87;21033;-75
2021/05/26 04:30:25;;;;;;;2.95;1.07;;;;;;;12.63;75.20;98169.41;1644050;87;21090;-75
2021/05/26 04:32:53;;;;;;;1.35;1.10;;;;;;;12.56;73.79;98168.75;1644031;87;21587;-75
2021/05/26 04:35:19;;;;;;;1.30;1.20;;;;;;;12.47;74.62;98171.72;1644099;87;21223;-75
2021/05/26 04:37:46;;;;;;;3.05;1.30;;;;;;;12.41;75.21;98171.45;1650040;87;21084;-75
2021/05/26 04:40:14;;;;;;;1.87;1.25;;;;;;;12.30;75.47;98157.68;1651492;87;21546;-75
2021/05/26 04:42:40;;;;;;;2.30;1.30;;;;;;;12.22;75.04;98158.83;1632809;88;21063;-74
2021/05/26 04:45:08;;;;;;;3.15;1.30;;;;;;;12.17;75.38;98160.77;1632978;87;21115;-74
2021/05/26 04:47:34;;;;;;;1.50;1.37;;;;;;;12.17;75.16;98160.77;1632949;87;21114;-75
2021/05/26 04:50:01;;;;;;;5.30;1.45;;;;;;;12.19;75.66;98164.67;1632932;87;21111;-75
2021/05/26 04:52:28;;;;;;;3.37;1.40;;;;;;;12.26;76.31;98164.89;1632855;88;21046;-74
2021/05/26 04:54:55;;;;;;;5.03;1.40;;;;;;;12.37;76.23;98162.73;1632852;88;21114;-75
2021/05/26 04:57:21;;;;;;;3.65;1.82;;;;;;;12.46;76.50;98165.52;1632883;87;21062;-74
2021/05/26 04:59:48;;;;;;;4.55;1.75;;;;;;;12.55;77.17;98160.38;1604583;88;21615;-75
2021/05/26 05:02:14;;;;;;;4.20;1.90;;;;;;;12.66;77.89;98158.19;1616943;89;21062;-74
2021/05/26 05:04:41;;;;;;;1.92;1.35;;;;;;;12.75;77.17;98161.45;1616933;89;21093;-75
2021/05/26 05:07:07;;;;;;;2.27;1.60;;;;;;;12.86;76.78;98161.92;1623608;88;21508;-74
2021/05/26 05:09:33;;;;;;;2.08;1.22;;;;;;;12.94;76.52;98158.98;1623580;88;21048;-75
2021/05/26 05:12:01;;;;;;;4.47;1.50;;;;;;;12.97;71.00;98167.31;1623509;88;21096;-74
2021/05/26 05:14:27;;;;;;;2.35;1.40;;;;;;;12.91;71.77;98171.05;1623487;88;21111;-75
2021/05/26 05:16:53;;;;;;;3.52;1.50;;;;;;;12.84;71.29;98173.09;1623441;88;21027;-75
2021/05/26 05:19:20;;;;;;;2.98;1.32;;;;;;;12.91;72.78;98169.27;1623577;87;21071;-72
2021/05/26 05:21:46;;;;;;;3.72;1.72;;;;;;;13.03;73.50;98168.41;1623488;88;21044;-73
2021/05/26 05:24:13;;;;;;;2.60;1.75;;;;;;;13.15;72.79;98163.98;1623355;88;21102;-75
2021/05/26 05:26:39;;;;;;;3.62;1.40;;;;;;;13.24;70.59;98164.09;1629855;88;21493;-73
2021/05/26 05:29:06;;;;;;;3.33;1.40;;;;;;;13.32;70.40;98165.13;1624548;88;21054;-73
2021/05/26 05:31:33;;;;;;;4.58;1.17;;;;;;;13.38;71.85;98174.23;1623523;88;21067;-73
2021/05/26 05:34:02;;;;;;;1.70;1.25;;;;;;;13.43;71.04;98166.93;1623521;88;21575;-73
2021/05/26 05:36:28;;;;;;;4.75;1.30;;;;;;;13.53;71.68;98170.61;1623554;88;21064;-74
2021/05/26 05:38:55;;;;;;;4.40;1.30;;;;;;;13.59;70.34;98161.04;1623593;88;21102;-74
2021/05/26 05:41:21;;;;;;;4.35;1.42;;;;;;;13.64;71.22;98163.50;1623570;88;21087;-74
2021/05/26 05:43:47;;;;;;;2.85;1.27;;;;;;;13.68;70.27;98165.13;1623408;88;21528;-74
2021/05/26 05:46:14;;;;;;;2.75;1.25;;;;;;;13.70;70.71;98165.95;1623645;88;21108;-74
2021/05/26 05:48:41;;;;;;;2.02;1.17;;;;;;;13.73;71.18;98164.48;1634272;88;21126;-74
2021/05/26 05:51:08;;;;;;;1.62;1.20;;;;;;;13.81;71.54;98173.49;1633795;88;21043;-74
2021/05/26 05:53:35;;;;;;;3.47;1.20;;;;;;;13.91;71.72;98170.01;1634317;88;21022;-74
2021/05/26 05:56:01;;;;;;;3.72;1.17;;;;;;;13.96;70.66;98173.35;1636541;88;21139;-74
2021/05/26 05:58:29;;;;;;;3.15;1.10;;;;;;;13.97;68.33;98161.30;1632903;88;21037;-74
2021/05/26 06:00:57;;;;;;;3.70;1.25;;;;;;;13.88;65.45;98164.79;1647909;85;21099;-74
2021/05/26 06:03:26;;;;;;;3.15;1.20;;;;;;;13.84;68.56;98169.38;1660153;86;21144;-74
2021/05/26 06:05:52;;;;;;;3.00;1.32;;;;;;;13.85;68.00;98170.66;1676851;85;21131;-74
2021/05/26 06:08:20;;;;;;;2.87;1.87;;;;;;;13.87;68.26;98167.91;1689127;85;21598;-74
2021/05/26 06:10:47;;;;;;;2.67;1.10;;;;;;;13.91;66.45;98167.34;1689309;85;21054;-74
2021/05/26 06:13:13;;;;;;;1.92;0.90;;;;;;;13.83;63.14;98166.33;1676735;85;21527;-74
2021/05/26 06:15:40;;;;;;;1.45;0.90;;;;;;;13.69;63.93;98168.19;1686527;84;21003;-74
2021/05/26 06:18:06;;;;;;;1.92;1.10;;;;;;;13.68;63.03;98166.00;1663032;86;21050;-75
2021/05/26 06:20:33;;;;;;;2.87;0.93;;;;;;;13.72;65.85;98151.64;1658784;86;21535;-74
2021/05/26 06:22:59;;;;;;;1.95;0.93;;;;;;;13.72;63.77;98152.09;1647051;87;21074;-74
2021/05/26 06:25:26;;;;;;;1.47;0.98;;;;;;;13.72;63.72;98162.30;1646970;87;21062;-74
2021/05/26 06:27:53;;;;;;;2.15;1.10;;;;;;;13.69;64.64;98155.75;1647134;87;21037;-74
2021/05/26 06:30:21;;;;;;;3.67;1.00;;;;;;;13.70;64.92;98157.96;1647041;87;21585;-75
2021/05/26 06:32:47;;;;;;;3.40;1.52;;;;;;;13.70;65.97;98154.81;1646981;87;21551;-74
2021/05/26 06:35:14;;;;;;;2.20;1.25;;;;;;;13.73;63.77;98156.48;1647162;87;21070;-74
2021/05/26 06:37:42;;;;;;;2.50;1.10;;;;;;;13.75;62.14;98157.31;1647145;87;21093;-74
2021/05/26 06:40:10;;;;;;;3.30;0.90;;;;;;;13.76;62.43;98156.83;1653244;85;21188;-75
2021/05/26 06:42:37;;;;;;;1.85;1.00;;;;;;;13.81;62.95;98157.05;1665177;85;21026;-74
2021/05/26 06:45:04;;;;;;;1.85;1.20;;;;;;;13.87;63.49;98155.92;1675075;85;21472;-76
2021/05/26 06:47:31;;;;;;;3.37;1.52;;;;;;;13.96;64.07;98164.87;1674504;85;21347;-75
2021/05/26 06:49:59;;;;;;;4.37;1.05;;;;;;;14.04;63.98;98155.23;1675004;85;21043;-75
2021/05/26 06:52:25;;;;;;;2.70;1.10;;;;;;;14.09;62.79;98149.73;1675940;85;21086;-75
2021/05/26 06:54:52;;;;;;;1.92;1.00;;;;;;;14.18;62.93;98149.80;1674424;85;21086;-75
2021/05/26 06:57:19;;;;;;;1.20;1.10;;;;;;;14.24;61.40;98154.86;1675221;85;21080;-75
2021/05/26 06:59:45;;;;;;;4.62;1.30;;;;;;;14.29;62.53;98147.57;1671586;85;21109;-75
2021/05/26 07:02:12;;;;;;;2.90;0.93;;;;;;;14.35;61.97;98154.42;1648086;86;21069;-75
2021/05/26 07:04:38;;;;;;;2.75;1.57;;;;;;;14.42;62.10;98144.37;1656568;86;22491;-75
2021/05/26 07:07:04;;;;;;;3.98;1.70;;;;;;;14.46;60.53;98141.97;1715951;83;21011;-74
2021/05/26 07:09:31;;;;;;;2.27;1.25;;;;;;;14.50;61.50;98145.77;1712728;82;21104;-75
2021/05/26 07:11:58;;;;;;;2.37;1.30;;;;;;;14.57;61.17;98137.52;1715587;83;21507;-74
2021/05/26 07:14:24;;;;;;;2.47;1.52;;;;;;;14.55;61.45;98141.58;1711303;83;21116;-75
2021/05/26 07:16:51;;;;;;;2.90;1.30;;;;;;;14.60;62.04;98141.36;1716032;83;21147;-74
2021/05/26 07:19:17;;;;;;;2.83;1.30;;;;;;;14.63;60.41;98136.78;1712788;83;21062;-75
2021/05/26 07:21:44;;;;;;;2.58;1.22;;;;;;;14.69;61.97;98136.96;1714019;83;21062;-74
2021/05/26 07:24:11;;;;;;;2.30;1.47;;;;;;;14.76;61.79;98136.26;1714478;83;21452;-78
2021/05/26 07:26:38;;;;;;;4.10;1.57;;;;;;;14.83;62.53;98140.41;1714368;83;21038;-75
2021/05/26 07:29:05;;;;;;;3.72;1.40;;;;;;;14.92;62.49;98137.78;1703950;83;21019;-75
2021/05/26 07:31:31;;;;;;;1.87;1.30;;;;;;;14.99;62.17;98144.55;1708346;83;21039;-74
2021/05/26 07:33:59;;;;;;;5.80;1.30;;;;;;;15.04;60.19;98133.20;1711093;83;21496;-74
2021/05/26 07:36:25;;;;;;;4.85;1.57;;;;;;;15.10;61.95;98129.85;1712491;83;21117;-75
2021/05/26 07:38:53;;;;;;;5.65;1.30;;;;;;;15.17;62.71;98125.49;1711599;83;21571;-74
2021/05/26 07:41:19;;;;;;;1.65;1.30;;;;;;;15.28;62.34;98122.33;1714801;83;21033;-76
2021/05/26 07:43:46;;;;;;;4.67;1.60;;;;;;;15.35;60.77;98121.58;1708606;83;21409;-76
2021/05/26 07:46:13;;;;;;;2.37;1.87;;;;;;;15.36;59.21;98129.98;1701271;83;21567;-75
2021/05/26 07:48:40;;;;;;;2.00;1.42;;;;;;;15.38;59.04;98133.92;1716926;83;21117;-75
2021/05/26 07:51:06;;;;;;;2.60;1.42;;;;;;;15.35;58.56;98133.59;1722898;83;21045;-75
2021/05/26 07:53:33;;;;;;;5.37;1.22;;;;;;;15.34;58.76;98130.53;1718689;83;21065;-75
2021/05/26 07:56:02;;;;;;;2.45;1.60;;;;;;;15.32;57.21;98127.05;1710348;83;21503;-79
2021/05/26 07:58:28;;;;;;;2.30;1.15;;;;;;;15.35;57.57;98127.38;1714657;83;21117;-78
2021/05/26 08:00:55;;;;;;;2.65;1.37;;;;;;;15.36;56.42;98125.97;1708151;83;21098;-78
2021/05/26 08:03:22;;;;;;;1.77;1.30;;;;;;;15.40;57.70;98130.23;1705954;84;21058;-78
2021/05/26 08:05:48;;;;;;;2.08;1.25;;;;;;;15.43;57.14;98122.55;1706701;84;21114;-78
2021/05/26 08:08:14;;;;;;;1.32;1.02;;;;;;;15.43;57.13;98117.20;1707548;84;21070;-77
2021/05/26 08:10:42;;;;;;;2.05;1.30;;;;;;;15.55;58.66;98112.63;1707592;84;21490;-77
2021/05/26 08:13:09;;;;;;;7.78;1.20;;;;;;;15.67;58.49;98112.50;1702417;84;21102;-78
2021/05/26 08:15:37;;;;;;;2.42;1.25;;;;;;;15.78;58.91;98118.64;1700308;84;21067;-78
2021/05/26 08:18:03;;;;;;;1.50;1.20;;;;;;;15.86;56.17;98109.39;1696647;84;21448;-75
2021/05/26 08:20:30;;;;;;;2.40;1.30;;;;;;;15.93;55.76;98110.37;1699818;84;20980;-77
2021/05/26 08:22:56;;;;;;;4.92;1.30;;;;;;;16.04;57.00;98107.19;1705321;83;21540;-78
2021/05/26 08:25:22;;;;;;;2.52;1.30;;;;;;;16.17;57.57;98104.75;1700926;84;21026;-78
2021/05/26 08:27:50;;;;;;;2.05;1.37;;;;;;;16.29;57.21;98104.59;1699208;84;21035;-77
2021/05/26 08:30:18;;;;;;;3.02;1.12;;;;;;;16.41;57.52;98096.41;1696321;83;21050;-78
2021/05/26 08:32:46;;;;;;;2.95;0.90;;;;;;;16.62;57.21;98104.25;1701974;84;21010;-78
2021/05/26 08:35:13;;;;;;;3.20;1.22;;;;;;;16.75;56.37;98100.45;1697066;84;21193;-78
2021/05/26 08:37:40;;;;;;;1.40;0.93;;;;;;;16.91;54.70;98105.86;1699728;84;21055;-77
2021/05/26 08:40:08;;;;;;;4.22;0.80;;;;;;;17.04;54.48;98098.52;1699050;84;21011;-76
2021/05/26 08:42:35;;;;;;;1.40;1.20;;;;;;;17.15;52.29;98096.98;1698819;84;21150;-78
2021/05/26 08:45:05;;;;;;;2.47;1.02;;;;;;;17.27;52.70;98094.56;1698348;84;21043;-78
2021/05/26 08:47:35;;;;;;;1.32;0.90;;;;;;;17.34;53.24;98095.09;1697393;83;21063;-75
2021/05/26 08:50:01;;;;;;;2.67;1.10;;;;;;;17.35;53.05;98095.01;1692948;84;21094;-75
2021/05/26 08:52:28;;;;;;;5.10;1.10;;;;;;;17.43;52.73;98098.59;1694173;84;21106;-75
2021/05/26 08:54:54;;;;;;;4.17;1.07;;;;;;;17.55;53.08;98103.28;1702444;84;21042;-75
2021/05/26 08:57:20;;;;;;;2.40;0.90;;;;;;;17.62;50.35;98100.24;1699423;84;21571;-75
2021/05/26 08:59:47;;;;;;;1.55;1.00;;;;;;;17.70;51.89;98102.02;1698335;84;21527;-79
2021/05/26 09:02:14;;;;;;;3.08;1.07;;;;;;;17.74;50.83;98093.31;1708461;83;21037;-77
2021/05/26 09:04:42;;;;;;;1.45;0.90;;;;;;;17.81;51.24;98090.19;1719765;83;21076;-77
2021/05/26 09:07:14;;;;;;;1.20;0.90;;;;;;;17.87;46.85;98084.96;1698899;84;21586;-78
2021/05/26 09:10:06;;;;;;;1.85;1.10;;;;;;;18.01;50.15;98080.58;1699085;84;21402;-78
2021/05/26 09:12:39;;;;;;;3.37;0.98;;;;;;;18.17;49.19;98080.11;1707861;83;21140;-79
2021/05/26 09:15:18;;;;;;;3.77;1.20;;;;;;;18.28;48.14;98073.24;1712877;82;21047;-79
2021/05/26 09:17:55;;;;;;;2.60;0.90;;;;;;;18.38;49.72;98073.53;1718909;82;21030;-79
2021/05/26 09:20:28;;;;;;;3.60;1.05;;;;;;;18.50;50.31;98072.80;1712407;83;21014;-78
2021/05/26 09:23:16;;;;;;;2.70;1.10;;;;;;;18.56;49.17;98063.03;1714732;82;21033;-82
2021/05/26 09:25:52;;;;;;;2.72;1.10;;;;;;;18.60;48.51;98066.38;1704854;83;21807;-80
2021/05/26 09:28:34;;;;;;;1.75;0.90;;;;;;;18.63;49.72;98063.52;1718610;82;21074;-80
2021/05/26 09:31:10;;;;;;;5.62;1.10;;;;;;;18.53;45.00;98065.05;1687463;83;21006;-81
2021/05/26 09:33:44;;;;;;;2.37;1.20;;;;;;;18.36;45.93;98063.39;1713208;83;21054;-78
2021/05/26 09:36:20;;;;;;;;;;;;;;;18.08;46.00;98064.57;1717566;82;21026;-80
2021/05/26 09:38:58;;;;;;;2.25;1.10;;;;;;;18.10;46.51;98066.67;1713893;82;20144;-80
2021/05/26 09:41:32;;;;;;;2.50;1.07;;;;;;;18.07;47.33;98061.01;1713501;82;21031;-80
2021/05/26 09:44:10;;;;;;;2.70;1.00;;;;;;;18.10;47.41;98056.44;1699514;83;21562;-78
2021/05/26 09:46:43;;;;;;;3.37;1.15;;;;;;;18.19;48.66;98047.84;1699885;84;21076;-79
2021/05/26 09:49:20;;;;;;;3.70;1.30;;;;;;;18.33;48.90;98046.53;1703775;84;21078;-78
2021/05/26 09:51:55;;;;;;;2.35;1.10;;;;;;;18.45;48.55;98040.90;1712866;84;21067;-79
2021/05/26 09:54:30;;;;;;;4.35;1.57;;;;;;;18.52;48.78;98037.33;1677500;85;21595;-80
2021/05/26 09:57:06;;;;;;;2.27;1.00;;;;;;;18.67;49.25;98039.55;1699417;84;21050;-79
2021/05/26 09:59:35;;;;;;;1.17;1.00;;;;;;;18.75;46.77;98032.36;1699388;84;21035;-80
2021/05/26 10:02:07;;;;;;;4.20;1.00;;;;;;;18.76;47.02;98031.90;1704300;82;21110;-76
2021/05/26 10:04:31;;;;;;;1.15;1.00;;;;;;;18.83;47.44;98032.75;1700107;84;21635;-76
2021/05/26 10:07:17;;;;;;;1.30;1.00;;;;;;;18.86;45.65;98024.98;1702935;84;21134;-77
2021/05/26 10:09:48;;;;;;;1.40;0.93;;;;;;;18.89;45.61;98024.77;1702822;83;21035;-78
2021/05/26 10:12:17;;;;;;;3.62;1.37;;;;;;;19.04;47.34;98016.70;1701768;84;21149;-78
2021/05/26 10:14:46;;;;;;;1.30;1.20;;;;;;;19.25;47.24;98015.36;1695601;84;21512;-79
2021/05/26 10:17:19;;;;;;;1.60;1.10;;;;;;;19.44;47.40;98015.98;1696434;83;21532;-77
2021/05/26 10:19:43;;;;;;;2.42;1.12;;;;;;;19.63;45.01;98012.91;1703209;83;21070;-76
2021/05/26 10:22:10;;;;;;;4.33;0.98;;;;;;;19.46;43.53;98014.03;1702802;83;21504;-78
2021/05/26 10:24:37;;;;;;;2.80;1.00;;;;;;;19.46;45.30;98018.06;1702734;83;21457;-76
2021/05/26 10:27:06;;;;;;;1.57;1.12;;;;;;;19.37;45.18;98004.30;1702913;83;21102;-78
2021/05/26 10:29:39;;;;;;;1.42;1.10;;;;;;;19.38;45.78;98005.14;1702848;83;21484;-79
2021/05/26 10:32:21;;;;;;;2.55;1.00;;;;;;;19.49;46.10;98000.41;1703073;83;21488;-78
2021/05/26 10:34:58;;;;;;;2.05;1.07;;;;;;;19.63;46.28;98000.34;1702919;83;21030;-80
2021/05/26 10:37:36;;;;;;;1.42;1.12;;;;;;;19.89;45.98;97998.22;1700433;84;21141;-78
2021/05/26 10:40:30;;;;;;;1.30;1.00;;;;;;;20.14;46.17;97997.41;1700153;84;21487;-80
2021/05/26 10:43:19;;;;;;;;;;;;;;;20.96;46.19;97996.70;1702997;84;21018;-79
2021/05/26 10:45:49;;;;;;;1.30;1.00;;;;;;;22.25;42.31;97991.20;1696883;83;20202;-79
2021/05/26 10:48:42;;;;;;;2.10;1.10;;;;;;;23.31;40.76;97973.41;1709456;83;21489;-79
2021/05/26 10:51:12;;;;;;;1.02;0.90;;;;;;;23.94;34.96;97966.41;1682253;83;21011;-80
2021/05/26 10:53:42;;;;;;;1.25;1.00;;;;;;;24.47;37.44;97967.83;1710542;83;21456;-79
2021/05/26 10:56:37;;;;;;;1.65;1.20;;;;;;;25.43;34.79;97959.33;1699131;83;21011;-78
2021/05/26 10:59:13;;;;;;;2.58;1.10;;;;;;;25.86;36.73;97957.70;1706882;83;21030;-78
2021/05/26 11:02:09;;;;;;;1.27;1.02;;;;;;;25.74;35.67;97952.91;1687245;83;21054;-78
2021/05/26 11:04:41;;;;;;;2.83;1.10;;;;;;;27.24;33.79;97931.42;1717388;83;21571;-79
2021/05/26 11:07:29;;;;;;;2.70;1.20;;;;;;;27.24;33.79;97931.42;1716731;82;21010;-77
2021/05/26 11:10:03;;;;;;;2.80;0.98;;;;;;;28.00;30.49;97942.03;1700303;84;21615;-78
2021/05/26 11:12:57;;;;;;;2.25;1.20;;;;;;;28.52;32.44;97939.50;1700515;83;21023;-79
2021/05/26 11:15:42;;;;;;;4.03;1.20;;;;;;;28.85;32.41;97935.55;1703199;84;21552;-78
2021/05/26 11:18:28;;;;;;;2.17;1.10;;;;;;;29.30;32.59;97925.85;1694061;83;21062;-78
2021/05/26 11:20:45;;;;;;;2.30;1.02;;;;;;;29.71;28.36;97925.05;1679661;84;21476;-79
2021/05/26 11:23:14;;;;;;;1.95;1.10;;;;;;;30.00;28.93;97925.05;1687400;84;21156;-76
2021/05/26 11:25:56;;;;;;;1.72;1.20;;;;;;;30.45;29.00;97926.03;1694637;84;21043;-78
2021/05/26 11:28:35;;;;;;;3.80;1.20;;;;;;;30.88;28.80;97925.77;1706823;83;21061;-76
2021/05/26 11:31:08;;;;;;;3.33;1.15;;;;;;;30.77;28.07;97912.78;1686964;84;21527;-75
2021/05/26 11:33:35;;;;;;;;;;;;;;;31.07;28.10;97921.22;1693674;84;21528;-76
2021/05/26 11:36:11;;;;;;;2.52;2.12;;;;;;;31.34;27.24;97911.32;1693342;84;20212;-76
2021/05/26 11:38:34;;;;;;;1.07;0.93;;;;;;;30.81;28.80;97912.77;1646394;86;21063;-73
2021/05/26 11:41:02;;;;;;;5.78;1.42;;;;;;;30.34;27.93;97910.88;1672961;86;21556;-74
2021/05/26 11:43:34;;;;;;;1.87;1.12;;;;;;;29.72;28.55;97911.23;1700427;83;21076;-74
2021/05/26 11:46:07;;;;;;;4.10;0.98;;;;;;;29.29;27.99;97907.25;1702635;83;21023;-73
2021/05/26 11:48:35;;;;;;;3.30;1.10;;;;;;;28.49;29.30;97917.52;1705681;83;21015;-73